Aérodrome :
LOGIN :

S'inscrire | Disclaimer

   EN    FR    IT 

 










Légende :    VFR   VFR Marginal   IFR   IFR Intensif   IFR Très Intensif
Visi : 
Plafond : 
>= 8 km
>= 3000ft
5 à 8 km
1000 à 3000 ft
1500m à 5 km
500 à 1000 ft
800 à 1500m
200 à 500 ft
< 800m
< 200 ft
Symboles :   Orages  Brouillard  Fortes neiges  Fortes précipitations  Vent > 20 kt
SIGMETs :   Divers  Orages  Givrage  Turbulence  Onde Orograph.  Cendres Volcan.







- Altitude de l'aérodrome : 34 ft
- Code IATA : BLK
- Voir les cartes d'approche


EGNH - Blackpool

DERNIER METAR :
  • 231950Z 22016KT CAVOK 08/06 Q1006

METARs EXPIRÉS :
  • 231920Z 23020KT CAVOK 08/07 Q1006
  • 231850Z 24023KT CAVOK 09/07 Q1006
  • 231820Z 24024KT CAVOK 09/07 Q1006
  • 231750Z 24024KT 9999 FEW021 09/07 Q1005
  • 231720Z 23024KT 9999 FEW020 09/08 Q1005

TAF TAF EGNH
Valide du 23 à 18h jusqu'au 23 à 21h UTC


231658Z 2318/2321 22015KT 9999 FEW020
TEMPO 2318/2321 22022G32KT
ATIS : +44 1253 343 434 (x8315)
Pas de NOTAMs connus pour ce terrain.
1 SIGMET publié pour la FIR London (EGTT) :
 
Onde orographique forte
EGTT SIGMET 02 VALID 231900/232300 EGRR
EGTT LONDON FIR SEV MTW FCST WI N5443 E00205 - N5356 W00137 - N5500 W00216 - N5500 W00100 - N5500 E00153 - N5443 E00205 SFC/FL150 STNR WKN=



MET'MAP, la Météo Aéronautique d'un coup d'oeil ! - Copyright ORBIFLY Décembre 2007 - Disclaimer

ORBIFLY MET'MAP TEAM :

Programmation & Développement : Alexandra Zaïnal
Conception & Développement : Baudouin d'Aumeries
Co-Programmation & Développement : Marc-Olivier Méhu
Soutien technique & logistique : Manuel Goepfert

Contact : metmap@orbifly.com




SOURCES & CREDITS :

   NOAA